Time;durP1;ratioP1;P1;durP2;ratioP2;P2;SDS_P1;SDS_P2;PMS_P1;PMS_P2;Temp;Humidity;BMP_temperature;BMP_pressure;BME280_temperature;BME280_humidity;BME280_pressure;Samples;Min_cycle;Max_cycle;Signal;HPM_P1;HPM_P2
2022/04/26 03:37:12;;;;;;;11.43;7.97;;;;;;;;;;5097817;28;20127;-59
2022/04/26 03:39:42;;;;;;;11.38;8.27;;;7.40;99.90;;;;;;5096147;28;20508;-59
2022/04/26 03:42:08;;;;;;;13.02;8.77;;;7.50;99.90;;;;;;5096520;28;20092;-59
2022/04/26 03:44:33;;;;;;;20.95;9.90;;;7.50;99.90;;;;;;5097753;28;20091;-59
2022/04/26 03:46:59;;;;;;;10.80;7.85;;;7.50;99.90;;;;;;5097961;28;20406;-59
2022/04/26 03:49:25;;;;;;;17.45;8.32;;;7.40;99.90;;;;;;5095663;28;20055;-59
2022/04/26 03:51:54;;;;;;;13.93;8.48;;;7.30;99.90;;;;;;5097027;28;20040;-59
2022/04/26 03:54:21;;;;;;;10.13;8.27;;;7.50;99.90;;;;;;5095043;28;20052;-60
2022/04/26 03:56:47;;;;;;;17.67;8.38;;;7.40;99.90;;;;;;5096239;28;20048;-59
2022/04/26 03:59:12;;;;;;;13.02;7.55;;;7.50;99.90;;;;;;5095358;28;20040;-59
2022/04/26 04:01:39;;;;;;;17.48;9.52;;;7.40;99.90;;;;;;5079004;28;20551;-59
2022/04/26 04:04:04;;;;;;;14.27;8.35;;;7.30;99.90;;;;;;5096953;28;20363;-59
2022/04/26 04:06:30;;;;;;;18.02;8.57;;;7.60;99.90;;;;;;5078608;28;20051;-59
2022/04/26 04:08:55;;;;;;;15.20;7.53;;;7.40;99.90;;;;;;5095567;28;20040;-59
2022/04/26 04:11:21;;;;;;;14.32;7.95;;;7.20;99.90;;;;;;5095990;28;20040;-59
2022/04/26 04:13:47;;;;;;;15.82;7.63;;;;;;;;;;5097147;28;20191;-59
2022/04/26 04:16:12;;;;;;;14.50;7.72;;;7.30;99.90;;;;;;5094273;28;20120;-60
2022/04/26 04:21:22;;;;;;;13.95;7.13;;;7.10;99.90;;;;;;5095310;28;20040;-60
2022/04/26 04:23:47;;;;;;;11.00;7.25;;;7.10;99.90;;;;;;5095288;28;20494;-59
2022/04/26 04:26:13;;;;;;;15.13;7.40;;;7.00;99.90;;;;;;5093992;28;20497;-59
2022/04/26 04:28:39;;;;;;;14.20;6.68;;;6.90;99.90;;;;;;5095056;28;20462;-60
2022/04/26 04:31:05;;;;;;;10.57;6.82;;;7.00;99.90;;;;;;5094888;28;20040;-60
2022/04/26 04:33:30;;;;;;;11.55;6.70;;;6.90;99.90;;;;;;5095098;28;20040;-60
2022/04/26 04:35:56;;;;;;;10.68;7.82;;;6.90;99.90;;;;;;5094964;28;20130;-60
2022/04/26 04:38:21;;;;;;;11.88;7.35;;;7.00;99.90;;;;;;5094879;28;20040;-59
2022/04/26 04:40:47;;;;;;;12.30;7.32;;;7.00;99.90;;;;;;5093756;28;20094;-60
2022/04/26 04:43:13;;;;;;;13.02;7.25;;;6.90;99.90;;;;;;5094290;28;20070;-60
2022/04/26 04:45:39;;;;;;;15.85;7.00;;;6.90;99.90;;;;;;5094855;28;20127;-60
2022/04/26 04:48:06;;;;;;;12.38;7.22;;;6.80;99.90;;;;;;5094737;28;20123;-59
2022/04/26 04:50:35;;;;;;;9.57;6.50;;;6.80;99.90;;;;;;5094722;28;20028;-59
2022/04/26 04:53:01;;;;;;;10.85;6.90;;;7.00;99.90;;;;;;5094338;28;20040;-61
2022/04/26 04:55:27;;;;;;;16.45;7.38;;;6.90;99.90;;;;;;5094509;28;20041;-59
2022/04/26 04:57:52;;;;;;;14.73;7.15;;;7.00;99.90;;;;;;5094522;28;20036;-60
2022/04/26 05:00:18;;;;;;;12.07;7.13;;;6.90;99.90;;;;;;5094378;28;20089;-60
2022/04/26 05:02:44;;;;;;;12.43;8.00;;;7.00;99.90;;;;;;5094528;28;20040;-60
2022/04/26 05:05:10;;;;;;;19.30;7.53;;;7.20;99.90;;;;;;5094490;28;20042;-60
2022/04/26 05:07:37;;;;;;;13.65;6.57;;;7.10;99.90;;;;;;5086879;28;20497;-61
2022/04/26 05:10:06;;;;;;;17.15;6.80;;;;;;;;;;5085706;28;20568;-60
2022/04/26 05:12:33;;;;;;;13.68;6.50;;;;;;;;;;5085652;28;20081;-59
2022/04/26 05:14:59;;;;;;;16.83;7.60;;;7.50;99.90;;;;;;5085985;28;20039;-59
2022/04/26 05:17:27;;;;;;;14.48;7.22;;;;;;;;;;5064531;28;20064;-60
2022/04/26 05:19:53;;;;;;;11.65;6.97;;;;;;;;;;5065216;28;20048;-60
2022/04/26 05:22:19;;;;;;;11.40;7.03;;;;;;;;;;5065263;28;20151;-60
2022/04/26 05:24:56;;;;;;;12.27;7.10;;;;;;;;;;5065816;28;20120;-60
2022/04/26 05:27:22;;;;;;;11.30;5.85;;;;;;;;;;5065069;28;20074;-60
2022/04/26 05:29:48;;;;;;;15.30;5.95;;;;;;;;;;5065197;28;20063;-60
2022/04/26 05:32:18;;;;;;;12.27;6.15;;;;;;;;;;5082024;28;20498;-60
2022/04/26 05:34:44;;;;;;;11.68;6.53;;;;;;;;;;5084759;28;20044;-60
2022/04/26 05:37:10;;;;;;;14.90;6.18;;;;;;;;;;5063675;28;20048;-61
2022/04/26 05:39:36;;;;;;;10.15;5.82;;;;;;;;;;5063841;28;20032;-61
2022/04/26 05:42:02;;;;;;;7.93;5.78;;;;;;;;;;5065752;28;20072;-61
2022/04/26 05:44:28;;;;;;;20.13;6.15;;;;;;;;;;5066515;28;20043;-61
2022/04/26 05:46:53;;;;;;;14.15;6.03;;;8.20;99.90;;;;;;5086201;28;20044;-61
2022/04/26 05:49:19;;;;;;;11.63;6.47;;;;;;;;;;5084758;28;20383;-61
2022/04/26 05:51:45;;;;;;;16.63;6.07;;;;;;;;;;5070056;28;20045;-61
2022/04/26 05:54:11;;;;;;;15.68;5.47;;;;;;;;;;5064734;28;20530;-62
2022/04/26 05:56:37;;;;;;;14.52;6.20;;;;;;;;;;5065612;28;20052;-60
2022/04/26 05:59:05;;;;;;;10.32;5.70;;;;;;;;;;5062636;28;20734;-62
2022/04/26 06:01:30;;;;;;;7.97;5.32;;;8.70;99.90;;;;;;5065283;28;20565;-65
2022/04/26 06:03:57;;;;;;;10.18;6.97;;;;;;;;;;5082082;28;20044;-64
2022/04/26 06:06:25;;;;;;;9.75;5.78;;;;;;;;;;5082524;28;20044;-64
2022/04/26 06:08:51;;;;;;;12.32;5.30;;;;;;;;;;5071627;28;20043;-62
2022/04/26 06:11:17;;;;;;;12.00;6.32;;;;;;;;;;5067910;28;20041;-65
2022/04/26 06:13:43;;;;;;;12.70;5.18;;;9.20;99.90;;;;;;5064960;28;20575;-65
2022/04/26 06:16:09;;;;;;;10.43;5.13;;;;;;;;;;5066435;28;20123;-64
2022/04/26 06:18:35;;;;;;;15.25;5.68;;;;;;;;;;5063855;28;20048;-64
2022/04/26 06:21:01;;;;;;;8.70;5.05;;;;;;;;;;5063258;28;20379;-64
2022/04/26 06:23:27;;;;;;;12.63;4.75;;;9.00;99.90;;;;;;5076664;28;20259;-64
2022/04/26 06:25:53;;;;;;;12.13;5.10;;;;;;;;;;5077788;28;20063;-63
2022/04/26 06:28:19;;;;;;;12.27;5.20;;;;;;;;;;5070006;28;20533;-65
2022/04/26 06:30:45;;;;;;;12.63;5.93;;;;;;;;;;5085659;28;20108;-64
2022/04/26 06:33:11;;;;;;;14.63;5.22;;;;;;;;;;5084072;28;20546;-64
2022/04/26 06:35:37;;;;;;;10.63;4.97;;;;;;;;;;5070842;28;20125;-65
2022/04/26 06:38:02;;;;;;;10.10;4.47;;;9.50;99.90;;;;;;5063428;28;20079;-64
2022/04/26 06:40:28;;;;;;;8.10;4.90;;;;;;;;;;5064229;28;20047;-63
2022/04/26 06:42:54;;;;;;;9.48;4.28;;;;;;;;;;5064453;28;20037;-65
2022/04/26 06:45:20;;;;;;;12.85;4.30;;;10.00;99.90;;;;;;5074140;28;20401;-64
2022/04/26 06:47:48;;;;;;;10.20;4.93;;;;;;;;;;5085144;28;20536;-64
2022/04/26 06:50:14;;;;;;;8.73;4.70;;;;;;;;;;5084679;28;20472;-64
2022/04/26 06:52:39;;;;;;;11.60;4.47;;;10.80;99.90;;;;;;5085607;28;20046;-64
2022/04/26 06:55:05;;;;;;;8.73;4.45;;;11.00;99.90;;;;;;5085212;28;20125;-65
2022/04/26 06:57:31;;;;;;;7.38;3.90;;;;;;;;;;5085787;28;20049;-65
2022/04/26 06:59:57;;;;;;;8.75;3.90;;;11.10;99.90;;;;;;5085429;28;20040;-64
2022/04/26 07:02:23;;;;;;;12.63;4.18;;;;;;;;;;5081207;28;20048;-64
2022/04/26 07:04:49;;;;;;;7.15;3.92;;;;;;;;;;5078201;28;20040;-63
2022/04/26 07:07:14;;;;;;;14.80;5.05;;;11.20;99.90;;;;;;5073589;28;20051;-65
2022/04/26 07:09:40;;;;;;;7.50;3.55;;;11.30;99.90;;;;;;5076025;28;20398;-64
2022/04/26 07:12:07;;;;;;;7.43;3.47;;;11.10;99.90;;;;;;5088899;28;20085;-64
2022/04/26 07:14:33;;;;;;;7.65;4.00;;;11.00;99.90;;;;;;5095025;28;20486;-63
2022/04/26 07:17:00;;;;;;;12.18;3.90;;;11.00;99.90;;;;;;5094655;28;20040;-64
2022/04/26 07:19:25;;;;;;;8.23;3.70;;;11.10;99.90;;;;;;5096466;28;20044;-63
2022/04/26 07:21:51;;;;;;;13.57;4.05;;;10.80;99.90;;;;;;5095003;28;20047;-63
2022/04/26 07:24:16;;;;;;;8.05;4.25;;;10.80;99.90;;;;;;5096495;28;20034;-63
2022/04/26 07:26:43;;;;;;;10.52;3.95;;;10.80;99.90;;;;;;5096139;28;20070;-64
2022/04/26 07:29:08;;;;;;;9.68;4.65;;;10.70;99.90;;;;;;5096261;28;20108;-64
2022/04/26 07:31:35;;;;;;;11.55;4.68;;;10.70;99.90;;;;;;5094940;28;20178;-63
2022/04/26 07:36:45;;;;;;;8.65;3.75;;;10.80;99.90;;;;;;5096035;28;20433;-63
2022/04/26 07:39:11;;;;;;;8.45;3.85;;;10.70;99.90;;;;;;5095915;28;20044;-64
2022/04/26 07:41:36;;;;;;;13.77;4.63;;;11.00;99.90;;;;;;5096183;28;20032;-63
2022/04/26 07:44:02;;;;;;;8.00;4.13;;;10.90;99.90;;;;;;5095911;28;20543;-64
2022/04/26 07:46:28;;;;;;;9.65;3.90;;;11.00;99.90;;;;;;5094653;28;20397;-63
2022/04/26 07:48:55;;;;;;;9.60;5.47;;;11.30;99.90;;;;;;5095856;28;20036;-64
2022/04/26 07:51:21;;;;;;;6.72;4.07;;;11.40;99.90;;;;;;5095894;28;20043;-64
2022/04/26 07:53:47;;;;;;;8.68;4.40;;;11.40;99.90;;;;;;5094128;28;20084;-63
2022/04/26 07:56:13;;;;;;;6.25;4.15;;;11.40;99.90;;;;;;5077430;28;20103;-64
2022/04/26 07:58:39;;;;;;;11.85;4.43;;;11.40;99.90;;;;;;5095818;28;20402;-64
2022/04/26 08:01:04;;;;;;;10.60;4.30;;;11.50;99.90;;;;;;5094643;28;20455;-63
2022/04/26 08:03:32;;;;;;;7.85;3.88;;;11.20;99.90;;;;;;5094154;28;20114;-64
2022/04/26 08:05:58;;;;;;;7.63;4.25;;;11.10;99.90;;;;;;5095580;28;20401;-63
2022/04/26 08:08:23;;;;;;;7.47;3.63;;;11.20;99.90;;;;;;5094077;28;20043;-64
2022/04/26 08:10:49;;;;;;;6.82;3.25;;;11.40;99.90;;;;;;5095622;28;20116;-64
2022/04/26 08:13:15;;;;;;;6.70;3.17;;;11.30;99.90;;;;;;5095867;28;20043;-63
2022/04/26 08:15:41;;;;;;;9.35;4.60;;;11.40;99.90;;;;;;5095267;28;20097;-63
2022/04/26 08:18:06;;;;;;;7.85;3.35;;;11.50;99.90;;;;;;5094522;28;20119;-64
2022/04/26 08:20:33;;;;;;;8.48;3.80;;;11.60;99.90;;;;;;5095334;28;20028;-64
2022/04/26 08:22:59;;;;;;;6.78;3.38;;;;;;;;;;5094980;28;20036;-64
2022/04/26 08:28:09;;;;;;;11.27;3.63;;;11.30;99.90;;;;;;5093886;28;20052;-63
2022/04/26 08:30:34;;;;;;;6.10;3.55;;;11.30;99.90;;;;;;5095176;28;20119;-63
2022/04/26 08:33:00;;;;;;;5.85;3.33;;;11.50;99.90;;;;;;5094959;28;20032;-64
2022/04/26 08:35:29;;;;;;;10.27;4.60;;;11.50;99.90;;;;;;5094923;28;20059;-64
2022/04/26 08:37:55;;;;;;;7.03;3.45;;;11.50;99.90;;;;;;5095019;28;20042;-63
2022/04/26 08:40:21;;;;;;;7.28;3.15;;;;;;;;;;5093572;28;20118;-64
2022/04/26 08:42:50;;;;;;;7.32;3.08;;;11.40;99.90;;;;;;5093461;28;20089;-63
2022/04/26 08:45:17;;;;;;;8.20;3.40;;;11.20;99.90;;;;;;5086522;28;20490;-64
2022/04/26 08:53:21;;;;;;;3.60;2.90;;;11.70;99.90;;;;;;5074106;28;20044;-64
2022/04/26 08:55:49;;;;;;;8.93;3.10;;;11.90;99.90;;;;;;5089024;28;20048;-64
2022/04/26 08:58:18;;;;;;;7.35;2.83;;;12.00;99.90;;;;;;5076212;28;20044;-64
2022/04/26 09:01:05;;;;;;;6.18;3.67;;;12.30;99.90;;;;;;5094299;28;20040;-63
2022/04/26 09:03:55;;;;;;;5.72;3.10;;;12.60;99.90;;;;;;5093430;28;20473;-63
2022/04/26 09:06:40;;;;;;;6.05;2.80;;;12.50;99.90;;;;;;5091424;28;20055;-64
2022/04/26 09:09:07;;;;;;;7.45;3.55;;;12.40;99.90;;;;;;5094148;28;20039;-64
2022/04/26 09:11:34;;;;;;;4.20;2.75;;;12.30;99.90;;;;;;5094435;28;20044;-63
2022/04/26 09:14:01;;;;;;;7.03;3.08;;;12.20;99.90;;;;;;5093249;28;20047;-64
2022/04/26 09:16:27;;;;;;;8.18;3.67;;;12.10;99.90;;;;;;5092698;28;20493;-64
2022/04/26 09:18:58;;;;;;;5.13;2.75;;;12.10;99.90;;;;;;5094100;28;20047;-64
2022/04/26 09:21:27;;;;;;;5.95;2.85;;;12.40;99.90;;;;;;5092785;28;20044;-63
2022/04/26 09:23:56;;;;;;;7.07;3.28;;;12.70;99.90;;;;;;5093874;28;20581;-63
2022/04/26 09:26:22;;;;;;;7.72;2.50;;;12.60;99.90;;;;;;5094140;28;20081;-64
2022/04/26 09:28:50;;;;;;;11.35;3.33;;;12.90;99.90;;;;;;5094026;28;20039;-64
2022/04/26 09:31:26;;;;;;;5.95;3.03;;;13.10;99.90;;;;;;5092603;28;20055;-64
2022/04/26 09:33:57;;;;;;;8.45;3.17;;;13.00;99.90;;;;;;5092471;28;20055;-64
2022/04/26 09:36:25;;;;;;;9.77;2.80;;;13.00;99.90;;;;;;5093830;28;20081;-63
2022/04/26 09:38:50;;;;;;;10.32;3.80;;;13.00;99.90;;;;;;5093948;28;20068;-64
2022/04/26 09:41:16;;;;;;;4.72;3.00;;;13.10;99.90;;;;;;5093865;28;20068;-64
2022/04/26 09:43:41;;;;;;;9.02;3.00;;;13.40;99.90;;;;;;5093665;28;20532;-64
2022/04/26 09:46:08;;;;;;;6.90;2.80;;;13.40;99.90;;;;;;5093597;28;20044;-64
2022/04/26 09:48:38;;;;;;;6.53;2.53;;;13.80;99.90;;;;;;5093581;28;20036;-65
2022/04/26 09:51:05;;;;;;;6.32;3.45;;;13.80;99.90;;;;;;5093801;28;20135;-64
2022/04/26 09:53:32;;;;;;;6.00;2.53;;;14.20;99.90;;;;;;5093443;28;20080;-64
2022/04/26 09:55:59;;;;;;;3.63;2.63;;;13.90;99.90;;;;;;5092252;28;20487;-64
2022/04/26 09:58:27;;;;;;;8.50;3.88;;;14.00;99.90;;;;;;5093371;28;20501;-64
2022/04/26 10:00:56;;;;;;;5.03;2.63;;;14.00;99.90;;;;;;5075653;28;20044;-64
2022/04/26 10:03:30;;;;;;;6.55;3.08;;;14.10;99.90;;;;;;5091982;28;20391;-64
2022/04/26 10:06:02;;;;;;;10.83;3.20;;;14.10;99.90;;;;;;5093869;28;20161;-64
2022/04/26 10:08:30;;;;;;;5.57;2.67;;;14.00;99.90;;;;;;5093383;28;20433;-64
2022/04/26 10:10:57;;;;;;;7.97;2.67;;;13.80;99.90;;;;;;5093479;28;20043;-64
2022/04/26 10:13:38;;;;;;;11.90;3.65;;;14.00;99.90;;;;;;5093208;28;20389;-64
2022/04/26 10:16:15;;;;;;;5.95;3.15;;;14.10;99.90;;;;;;5092239;28;20089;-64
2022/04/26 10:18:43;;;;;;;4.32;2.60;;;14.10;99.90;;;;;;5093456;28;20088;-64
2022/04/26 10:21:29;;;;;;;6.75;2.90;;;14.10;99.90;;;;;;5093276;28;20375;-64
2022/04/26 10:23:56;;;;;;;5.60;2.40;;;14.20;99.90;;;;;;5092937;28;20093;-64
2022/04/26 10:26:26;;;;;;;7.55;3.20;;;14.20;99.90;;;;;;5091810;28;20044;-64
2022/04/26 10:28:57;;;;;;;8.05;3.50;;;14.40;99.90;;;;;;5093280;28;20072;-64
2022/04/26 10:31:45;;;;;;;5.43;2.35;;;14.50;99.90;;;;;;5092135;28;20100;-64
2022/04/26 10:34:23;;;;;;;8.48;4.28;;;14.50;99.90;;;;;;5093074;28;20043;-64
2022/04/26 10:36:50;;;;;;;8.52;2.50;;;14.60;99.90;;;;;;5092942;28;20167;-64
2022/04/26 10:39:58;;;;;;;5.38;2.70;;;14.80;99.90;;;;;;5093041;28;20115;-64
2022/04/26 10:42:30;;;;;;;5.43;3.17;;;14.70;99.90;;;;;;5086234;28;20406;-64
2022/04/26 10:45:06;;;;;;;5.05;2.38;;;14.70;99.90;;;;;;5096937;28;20031;-64
2022/04/26 10:47:33;;;;;;;6.75;2.75;;;14.80;99.90;;;;;;5095812;28;20524;-64
2022/04/26 10:50:00;;;;;;;6.13;2.60;;;14.70;99.90;;;;;;5097079;28;20079;-64
2022/04/26 10:52:36;;;;;;;8.02;2.53;;;14.90;99.90;;;;;;5096806;28;20076;-64
2022/04/26 10:55:05;;;;;;;7.00;2.60;;;14.80;99.90;;;;;;5095576;28;20056;-64
2022/04/26 10:57:36;;;;;;;7.95;2.40;;;14.60;99.90;;;;;;5095507;28;20036;-64
2022/04/26 11:00:21;;;;;;;3.58;2.25;;;14.70;99.90;;;;;;5096920;28;20504;-64
2022/04/26 11:02:48;;;;;;;6.10;2.40;;;14.80;99.90;;;;;;5095317;28;20047;-64
2022/04/26 11:05:34;;;;;;;5.25;2.38;;;14.90;99.90;;;;;;5096939;28;20040;-64
2022/04/26 11:08:00;;;;;;;;;;;14.80;99.90;;;;;;5095761;28;20119;-64
2022/04/26 11:10:27;;;;;;;3.88;1.98;;;14.70;99.90;;;;;;5095296;28;19998;-64
2022/04/26 11:12:55;;;;;;;5.03;2.35;;;14.70;99.90;;;;;;5096793;28;20402;-64
2022/04/26 11:15:25;;;;;;;5.70;2.42;;;14.60;99.90;;;;;;5096516;28;20040;-64
2022/04/26 11:17:52;;;;;;;7.93;2.88;;;14.80;99.90;;;;;;5095218;28;20044;-64
2022/04/26 11:20:20;;;;;;;8.15;2.50;;;14.70;99.90;;;;;;5095075;28;20045;-64
2022/04/26 11:22:50;;;;;;;5.32;2.30;;;14.80;99.90;;;;;;5095008;28;20122;-64
2022/04/26 11:28:14;;;;;;;5.13;2.35;;;14.90;99.90;;;;;;5095050;28;20055;-64
2022/04/26 11:30:43;;;;;;;4.72;2.45;;;15.00;99.90;;;;;;5096231;28;20075;-64
2022/04/26 11:33:11;;;;;;;4.50;2.50;;;14.90;99.90;;;;;;5094867;28;20040;-64
2022/04/26 11:35:38;;;;;;;5.68;2.17;;;14.60;99.90;;;;;;5096328;28;20044;-64
2022/04/26 11:38:13;;;;;;;4.85;2.05;;;14.70;99.90;;;;;;5094700;28;20071;-64
2022/04/26 11:41:00;;;;;;;5.03;2.42;;;14.80;99.90;;;;;;5094762;28;20032;-64
2022/04/26 11:43:36;;;;;;;4.00;2.60;;;14.70;99.90;;;;;;5094124;28;20052;-64
2022/04/26 11:46:03;;;;;;;8.48;2.78;;;14.70;99.90;;;;;;5094582;28;20493;-64
2022/04/26 11:48:32;;;;;;;7.43;2.67;;;14.70;99.90;;;;;;5096046;28;20036;-64
2022/04/26 11:50:59;;;;;;;6.60;2.15;;;14.70;99.90;;;;;;5095939;28;20040;-64
2022/04/26 11:53:28;;;;;;;7.72;2.40;;;14.30;99.90;;;;;;5094492;28;20472;-64
2022/04/26 11:55:58;;;;;;;8.10;2.35;;;14.30;99.90;;;;;;5095748;28;20036;-64
2022/04/26 11:58:27;;;;;;;4.03;2.03;;;14.30;99.90;;;;;;5095605;28;20040;-64
2022/04/26 12:00:54;;;;;;;5.57;3.33;;;14.50;99.90;;;;;;5094657;28;20481;-64
2022/04/26 12:03:22;;;;;;;5.40;2.15;;;14.70;99.90;;;;;;5095762;28;20036;-64
2022/04/26 12:05:52;;;;;;;4.28;2.10;;;14.70;99.90;;;;;;5095610;28;20040;-64
2022/04/26 12:08:18;;;;;;;4.93;2.17;;;14.90;99.90;;;;;;5094127;28;20036;-64
2022/04/26 12:10:47;;;;;;;3.88;2.22;;;15.00;99.90;;;;;;5094004;28;20040;-64
2022/04/26 12:13:13;;;;;;;6.43;2.42;;;15.10;99.90;;;;;;5094069;28;20055;-64
2022/04/26 12:15:39;;;;;;;3.47;2.47;;;15.20;99.90;;;;;;5095481;28;20075;-64
2022/04/26 12:18:08;;;;;;;6.55;2.35;;;15.40;99.90;;;;;;5095421;28;20082;-64
2022/04/26 12:20:55;;;;;;;4.40;2.17;;;15.00;99.90;;;;;;5093903;28;20040;-64
2022/04/26 12:23:22;;;;;;;6.13;2.80;;;15.20;99.90;;;;;;5091223;28;20127;-64
2022/04/26 12:26:01;;;;;;;7.15;2.58;;;14.70;99.90;;;;;;5095423;28;20044;-64
2022/04/26 12:28:27;;;;;;;3.28;2.08;;;14.90;99.90;;;;;;5095345;28;20044;-64
2022/04/26 12:30:54;;;;;;;3.88;2.00;;;14.80;99.90;;;;;;5095265;28;20039;-64
2022/04/26 12:33:36;;;;;;;4.95;2.03;;;15.00;99.90;;;;;;5093691;28;20466;-64
2022/04/26 12:36:06;;;;;;;6.50;1.90;;;15.00;99.90;;;;;;5093845;28;20040;-64
2022/04/26 12:38:45;;;;;;;7.40;2.13;;;15.20;99.90;;;;;;5095008;28;20032;-64
2022/04/26 12:41:11;;;;;;;5.57;1.90;;;15.10;99.90;;;;;;5094953;28;20070;-64
2022/04/26 12:43:37;;;;;;;4.50;1.85;;;14.90;99.90;;;;;;5094962;28;20060;-64
2022/04/26 12:46:06;;;;;;;8.70;1.95;;;15.00;99.90;;;;;;5094689;28;20059;-64
2022/04/26 12:51:22;;;;;;;4.22;1.92;;;15.20;99.90;;;;;;5094946;28;20044;-64
2022/04/26 12:53:52;;;;;;;11.52;2.95;;;15.10;99.90;;;;;;5093074;28;20052;-64
2022/04/26 12:56:20;;;;;;;6.05;2.15;;;14.90;99.90;;;;;;5094564;28;20138;-64
2022/04/26 12:58:47;;;;;;;6.28;2.30;;;14.80;99.90;;;;;;5094442;28;20111;-64
2022/04/26 13:01:13;;;;;;;7.60;2.35;;;14.80;99.90;;;;;;5094516;28;20097;-64
2022/04/26 13:03:40;;;;;;;3.67;1.83;;;14.60;99.90;;;;;;5094218;28;20036;-64
2022/04/26 13:06:15;;;;;;;6.43;2.63;;;14.50;99.90;;;;;;5094553;28;20405;-64
2022/04/26 13:08:43;;;;;;;7.55;2.80;;;14.70;99.90;;;;;;5094366;28;20083;-64
2022/04/26 13:11:09;;;;;;;2.72;2.40;;;14.90;99.90;;;;;;5076186;28;20040;-64
2022/04/26 13:13:36;;;;;;;8.43;3.28;;;15.00;99.90;;;;;;5094237;28;20068;-64
2022/04/26 13:16:02;;;;;;;6.85;2.90;;;14.90;99.90;;;;;;5092857;28;20040;-64
2022/04/26 13:18:28;;;;;;;4.40;2.28;;;14.80;99.90;;;;;;5076267;28;20032;-64
2022/04/26 13:20:58;;;;;;;5.95;3.38;;;14.90;99.90;;;;;;5094151;28;20107;-64
2022/04/26 13:23:24;;;;;;;5.43;2.13;;;14.70;99.90;;;;;;5094297;28;20036;-64
2022/04/26 13:25:51;;;;;;;6.15;2.40;;;14.90;99.90;;;;;;5094047;28;20032;-64
2022/04/26 13:28:16;;;;;;;7.80;2.60;;;15.20;99.90;;;;;;5093911;28;20043;-64
2022/04/26 13:30:42;;;;;;;6.85;2.83;;;14.60;99.90;;;;;;5094030;28;20119;-64
2022/04/26 13:33:08;;;;;;;3.85;2.13;;;14.70;99.90;;;;;;5093839;28;20048;-64
2022/04/26 13:35:35;;;;;;;6.18;2.35;;;14.80;99.90;;;;;;5092495;28;20046;-64
2022/04/26 13:38:01;;;;;;;4.78;2.67;;;14.50;99.90;;;;;;5092350;28;20047;-64
2022/04/26 13:40:27;;;;;;;7.85;2.58;;;14.60;99.90;;;;;;5093845;28;20393;-64
2022/04/26 13:42:53;;;;;;;3.53;2.17;;;14.50;99.90;;;;;;5093571;28;20119;-64
2022/04/26 13:45:20;;;;;;;6.00;2.78;;;14.70;99.90;;;;;;5093707;28;20032;-64
2022/04/26 13:47:45;;;;;;;4.78;2.55;;;14.70;99.90;;;;;;5093600;28;20101;-64
2022/04/26 13:50:12;;;;;;;4.78;2.63;;;14.80;99.90;;;;;;5093670;28;20035;-64
2022/04/26 13:52:40;;;;;;;3.85;2.40;;;14.70;99.90;;;;;;5093634;28;20050;-64
2022/04/26 13:55:07;;;;;;;4.05;2.45;;;15.00;99.90;;;;;;5093435;28;20131;-64
2022/04/26 13:57:33;;;;;;;5.57;2.40;;;15.10;99.90;;;;;;5092079;28;20482;-64
2022/04/26 13:59:59;;;;;;;5.95;3.10;;;15.20;99.90;;;;;;5093833;28;20055;-64
2022/04/26 14:02:24;;;;;;;3.85;2.50;;;15.20;99.90;;;;;;5093368;28;20394;-64
2022/04/26 14:04:50;;;;;;;5.97;2.67;;;15.10;99.90;;;;;;5092146;28;20044;-64
2022/04/26 14:07:16;;;;;;;5.18;2.78;;;15.20;99.90;;;;;;5093735;28;20174;-64
2022/04/26 14:09:41;;;;;;;6.55;3.22;;;15.30;99.90;;;;;;5093332;28;20048;-64
2022/04/26 14:12:08;;;;;;;5.80;3.20;;;15.20;99.90;;;;;;5092140;28;20051;-64
2022/04/26 14:22:49;;;;;;;;;;;14.90;99.90;;;;;;5092205;28;20044;-64
2022/04/26 14:25:15;;;;;;;3.88;2.38;;;14.90;99.90;;;;;;5091805;28;19920;-64
2022/04/26 14:27:43;;;;;;;6.50;2.72;;;14.70;99.90;;;;;;5091898;28;20036;-64
2022/04/26 14:30:12;;;;;;;4.25;2.63;;;14.60;99.90;;;;;;5091498;28;20051;-65
2022/04/26 14:32:37;;;;;;;8.73;3.00;;;14.40;99.90;;;;;;5084941;28;20040;-66
2022/04/26 14:35:04;;;;;;;7.93;3.72;;;14.30;99.90;;;;;;5080755;28;20463;-63
2022/04/26 14:37:31;;;;;;;4.50;2.65;;;14.10;99.90;;;;;;5087285;28;20051;-64
2022/04/26 14:39:57;;;;;;;5.15;2.60;;;;;;;;;;5085933;28;20068;-65
2022/04/26 14:42:24;;;;;;;6.40;2.83;;;;;;;;;;5065187;28;20470;-63
2022/04/26 14:44:50;;;;;;;6.72;2.65;;;;;;;;;;5086886;28;20056;-63
2022/04/26 14:47:15;;;;;;;7.53;2.72;;;14.00;99.90;;;;;;5085292;28;20130;-63
2022/04/26 14:49:41;;;;;;;6.40;3.03;;;14.00;99.90;;;;;;5080586;28;20044;-63
2022/04/26 14:52:07;;;;;;;5.60;2.30;;;13.90;99.90;;;;;;5081631;28;20052;-63
2022/04/26 14:54:34;;;;;;;7.03;3.10;;;13.70;99.90;;;;;;5081976;28;20109;-63
2022/04/26 14:57:00;;;;;;;5.60;2.85;;;;;;;;;;5081407;28;20417;-63
2022/04/26 14:59:26;;;;;;;6.95;2.88;;;;;;;;;;5083008;28;20055;-63
2022/04/26 15:01:52;;;;;;;6.60;2.42;;;13.60;99.90;;;;;;5084307;28;20507;-63
2022/04/26 15:04:20;;;;;;;7.07;2.80;;;13.70;99.90;;;;;;5084008;28;20032;-63
2022/04/26 15:06:46;;;;;;;7.13;2.90;;;13.60;99.90;;;;;;5082016;28;20047;-64
2022/04/26 15:17:26;;;;;;;6.28;3.30;;;14.10;99.90;;;;;;5079720;28;20294;-63
2022/04/26 15:19:52;;;;;;;4.70;2.67;;;;;;;;;;5087258;28;20032;-63
2022/04/26 15:22:19;;;;;;;6.53;2.50;;;14.50;99.90;;;;;;5086036;28;20044;-64
2022/04/26 15:24:48;;;;;;;5.15;2.90;;;14.30;99.90;;;;;;5081971;28;20051;-63
2022/04/26 15:27:15;;;;;;;7.00;2.90;;;14.30;99.90;;;;;;5075808;28;20612;-63
2022/04/26 15:29:42;;;;;;;4.88;2.67;;;14.20;99.90;;;;;;5090778;28;20063;-63
2022/04/26 15:32:08;;;;;;;4.65;2.40;;;14.30;99.90;;;;;;5091917;28;20390;-63
2022/04/26 15:34:34;;;;;;;7.55;3.08;;;14.20;99.90;;;;;;5092098;28;20048;-63
2022/04/26 15:37:00;;;;;;;6.03;2.40;;;14.20;99.90;;;;;;5090391;28;20078;-63
2022/04/26 15:39:26;;;;;;;5.30;2.92;;;14.10;99.90;;;;;;5090617;28;20071;-63
2022/04/26 15:41:52;;;;;;;5.28;2.65;;;14.00;99.90;;;;;;5092022;28;20039;-63
2022/04/26 15:44:18;;;;;;;4.10;2.65;;;13.90;99.90;;;;;;5090453;28;20067;-63
2022/04/26 15:46:45;;;;;;;9.65;3.00;;;13.80;99.90;;;;;;5072427;28;20122;-64
2022/04/26 15:49:11;;;;;;;4.53;2.42;;;13.60;99.90;;;;;;5071565;28;20048;-64
2022/04/26 15:51:37;;;;;;;9.60;2.75;;;13.40;99.90;;;;;;5071604;28;20051;-64
2022/04/26 15:54:03;;;;;;;6.30;3.25;;;13.60;99.90;;;;;;5070162;28;20149;-64
2022/04/26 15:56:29;;;;;;;3.88;2.88;;;13.40;99.90;;;;;;5070748;28;20494;-64
2022/04/26 15:58:55;;;;;;;6.50;2.97;;;13.40;99.90;;;;;;5071508;28;20041;-64
2022/04/26 16:01:20;;;;;;;6.43;2.92;;;13.40;99.90;;;;;;5071611;28;20044;-64
2022/04/26 16:03:46;;;;;;;7.60;2.80;;;13.40;99.90;;;;;;5069433;28;20056;-63
2022/04/26 16:06:12;;;;;;;6.88;3.03;;;;;;;;;;5070319;28;20466;-63
2022/04/26 16:08:38;;;;;;;4.95;3.00;;;13.50;99.90;;;;;;5069857;28;20048;-64
2022/04/26 16:22:02;;;;;;;8.25;3.08;;;13.90;99.90;;;;;;5071715;28;20448;-62
2022/04/26 16:24:28;;;;;;;5.72;3.40;;;;;;;;;;5083696;28;20093;-62
2022/04/26 16:26:55;;;;;;;7.72;2.75;;;14.10;99.90;;;;;;5084602;28;20116;-62
2022/04/26 16:29:21;;;;;;;4.65;2.33;;;;;;;;;;5085513;28;20094;-63
2022/04/26 16:31:48;;;;;;;10.98;3.13;;;14.20;99.90;;;;;;5084813;28;20135;-63
2022/04/26 16:34:13;;;;;;;4.80;2.97;;;14.20;99.90;;;;;;5086946;28;20040;-63
2022/04/26 16:36:39;;;;;;;7.82;2.67;;;;;;;;;;5077539;28;20044;-63
2022/04/26 16:39:06;;;;;;;5.22;2.58;;;14.30;99.90;;;;;;5082939;28;20336;-63
2022/04/26 16:41:32;;;;;;;6.50;2.70;;;;;;;;;;5079090;28;20063;-63
2022/04/26 16:43:58;;;;;;;7.82;3.13;;;14.20;99.90;;;;;;5065882;28;20039;-62
2022/04/26 16:46:25;;;;;;;6.50;2.83;;;14.40;99.90;;;;;;5071603;28;20048;-64
2022/04/26 16:48:51;;;;;;;7.15;2.80;;;;;;;;;;5063842;28;20046;-64
2022/04/26 16:51:19;;;;;;;7.10;2.60;;;;;;;;;;5068832;28;20064;-64
2022/04/26 16:53:46;;;;;;;6.47;3.30;;;14.10;99.90;;;;;;5083978;28;20381;-65
2022/04/26 16:56:12;;;;;;;6.93;2.22;;;14.10;99.90;;;;;;5085363;28;20063;-65
2022/04/26 16:58:38;;;;;;;5.43;2.50;;;14.00;99.90;;;;;;5066106;28;20040;-63
2022/04/26 17:01:04;;;;;;;6.22;2.90;;;14.10;99.90;;;;;;5066047;28;20509;-64
2022/04/26 17:03:30;;;;;;;4.30;2.35;;;14.10;99.90;;;;;;5065581;28;20115;-64
2022/04/26 17:05:56;;;;;;;7.18;2.88;;;13.80;99.90;;;;;;5067440;28;20123;-64
2022/04/26 17:08:21;;;;;;;5.78;2.70;;;13.80;99.90;;;;;;5072050;28;20036;-62
2022/04/26 17:10:48;;;;;;;4.75;2.17;;;13.80;99.90;;;;;;5055152;28;20123;-62
2022/04/26 17:13:14;;;;;;;5.07;2.25;;;13.50;99.90;;;;;;5082361;28;20054;-63
2022/04/26 17:15:41;;;;;;;6.38;2.60;;;13.40;99.90;;;;;;5073356;28;20032;-63
2022/04/26 17:18:07;;;;;;;7.10;3.00;;;13.50;99.90;;;;;;5089976;28;20130;-63
2022/04/26 17:20:34;;;;;;;8.52;2.78;;;13.30;99.90;;;;;;5091412;28;20036;-63
2022/04/26 17:23:01;;;;;;;6.70;2.88;;;13.20;99.90;;;;;;5090221;28;20035;-64
2022/04/26 17:25:29;;;;;;;9.55;3.05;;;13.10;99.90;;;;;;5091833;28;20040;-64
2022/04/26 17:27:55;;;;;;;6.82;2.65;;;12.80;99.90;;;;;;5087516;28;20119;-63